createdAt,value
2022-10-13T00:00:46.963Z,3.57
2022-10-13T00:03:32.776Z,3.51
2022-10-13T00:06:24.514Z,3.51
2022-10-13T00:09:10.202Z,3.47
2022-10-13T00:11:58.786Z,3.45
2022-10-13T00:14:44.294Z,3.46
2022-10-13T00:17:29.592Z,3.47
2022-10-13T00:20:14.980Z,3.39
2022-10-13T00:23:00.504Z,3.50
2022-10-13T00:25:49.014Z,3.63
2022-10-13T00:28:34.986Z,3.69
2022-10-13T00:31:23.091Z,3.68
2022-10-13T00:34:09.292Z,3.73
2022-10-13T00:36:54.476Z,3.75
2022-10-13T00:39:39.904Z,3.77
2022-10-13T00:42:27.262Z,3.57
2022-10-13T00:45:27.243Z,3.40
2022-10-13T00:48:13.479Z,3.25
2022-10-13T00:50:59.016Z,3.18
2022-10-13T00:53:47.619Z,3.30
2022-10-13T00:56:35.712Z,3.24
2022-10-13T00:59:27.473Z,3.17
2022-10-13T01:02:12.983Z,3.11
2022-10-13T01:04:59.497Z,3.07
2022-10-13T01:07:48.913Z,2.99
2022-10-13T01:10:55.922Z,2.89
2022-10-13T01:13:56.400Z,2.82
2022-10-13T01:17:00.032Z,2.78
2022-10-13T01:20:30.579Z,2.69
2022-10-13T01:23:47.111Z,2.64
2022-10-13T01:27:09.635Z,2.68
2022-10-13T01:30:04.924Z,2.85
2022-10-13T01:33:01.228Z,2.89
2022-10-13T01:36:05.594Z,2.76
2022-10-13T01:39:06.865Z,2.66
2022-10-13T01:41:57.301Z,2.51
2022-10-13T01:44:49.313Z,2.71
2022-10-13T01:47:37.511Z,2.87
2022-10-13T01:50:23.571Z,2.78
2022-10-13T01:53:12.001Z,2.75
2022-10-13T01:55:59.914Z,2.85
2022-10-13T01:58:46.435Z,2.80
2022-10-13T02:01:35.026Z,2.60
2022-10-13T02:04:20.434Z,2.51
2022-10-13T02:07:16.073Z,2.62
2022-10-13T02:10:13.607Z,2.74
2022-10-13T02:13:05.139Z,2.76
2022-10-13T02:15:55.491Z,2.82
2022-10-13T02:18:41.498Z,2.77
2022-10-13T02:21:28.787Z,2.91
2022-10-13T02:24:16.270Z,2.95
2022-10-13T02:27:02.251Z,2.85
2022-10-13T02:29:52.591Z,2.86
2022-10-13T02:32:38.955Z,2.73
2022-10-13T02:35:24.205Z,2.69
2022-10-13T02:38:10.694Z,2.58
2022-10-13T02:40:56.372Z,2.49
2022-10-13T02:43:42.772Z,2.47
2022-10-13T02:46:28.371Z,2.56
2022-10-13T02:49:13.915Z,2.63
2022-10-13T02:51:59.178Z,2.54
2022-10-13T02:54:44.722Z,2.44
2022-10-13T02:57:30.378Z,2.34
2022-10-13T03:00:17.846Z,2.47
2022-10-13T03:03:03.752Z,2.46
2022-10-13T03:05:49.397Z,2.36
2022-10-13T03:08:35.970Z,2.39
2022-10-13T03:11:21.738Z,2.42
2022-10-13T03:14:07.085Z,2.30
2022-10-13T03:16:52.398Z,2.28
2022-10-13T03:19:38.709Z,2.35
2022-10-13T03:22:24.479Z,2.24
2022-10-13T03:25:10.724Z,2.11
2022-10-13T03:27:59.339Z,2.01
2022-10-13T03:30:44.814Z,1.86
2022-10-13T03:33:30.419Z,1.81
2022-10-13T03:36:16.353Z,1.84
2022-10-13T03:39:04.050Z,1.93
2022-10-13T03:41:50.022Z,1.83
2022-10-13T03:44:35.614Z,1.83
2022-10-13T03:47:21.060Z,1.87
2022-10-13T03:50:07.198Z,2.11
2022-10-13T03:52:52.868Z,2.21
2022-10-13T03:55:38.266Z,2.38
2022-10-13T03:58:25.347Z,2.30
2022-10-13T04:01:14.304Z,2.26
2022-10-13T04:04:02.569Z,2.36
2022-10-13T04:06:47.997Z,2.24
2022-10-13T04:09:33.752Z,2.06
2022-10-13T04:12:21.095Z,1.83
2022-10-13T04:15:07.835Z,1.76
2022-10-13T04:17:53.117Z,1.62
2022-10-13T04:20:39.845Z,1.54
2022-10-13T04:23:25.663Z,1.66
2022-10-13T04:26:20.609Z,1.65
2022-10-13T04:29:08.066Z,1.48
2022-10-13T04:31:53.775Z,1.43
2022-10-13T04:34:39.278Z,1.44
2022-10-13T04:37:24.875Z,1.38
2022-10-13T04:40:10.949Z,1.34
2022-10-13T04:42:56.531Z,1.29
2022-10-13T04:45:42.058Z,1.23
2022-10-13T04:48:27.991Z,1.15
2022-10-13T04:51:19.995Z,1.18
2022-10-13T04:54:05.731Z,1.18
2022-10-13T04:56:51.106Z,1.09
2022-10-13T04:59:36.374Z,1.02
2022-10-13T05:02:22.612Z,1.00
2022-10-13T05:05:08.557Z,1.10
2022-10-13T05:07:54.281Z,1.11
2022-10-13T05:10:39.673Z,1.10
2022-10-13T05:13:26.616Z,1.07
2022-10-13T05:16:18.299Z,1.07
2022-10-13T05:19:04.035Z,1.00
2022-10-13T05:21:49.565Z,0.92
2022-10-13T05:24:38.652Z,0.99
2022-10-13T05:27:24.255Z,1.03
2022-10-13T05:30:10.387Z,1.12
2022-10-13T05:32:55.705Z,1.06
2022-10-13T05:35:41.934Z,1.02
2022-10-13T05:38:27.318Z,0.97
2022-10-13T05:41:14.654Z,1.08
2022-10-13T05:44:02.606Z,1.07
2022-10-13T05:46:47.974Z,1.06
2022-10-13T05:49:36.466Z,1.01
2022-10-13T05:52:24.501Z,1.05
2022-10-13T05:55:15.154Z,1.17
2022-10-13T05:58:02.412Z,1.17
2022-10-13T06:00:49.062Z,1.16
2022-10-13T06:03:35.567Z,1.25
2022-10-13T06:06:25.806Z,1.31
2022-10-13T06:09:15.434Z,1.33
2022-10-13T06:12:01.964Z,1.28
2022-10-13T06:14:47.666Z,1.28
2022-10-13T06:17:37.331Z,1.26
2022-10-13T06:20:23.108Z,1.27
2022-10-13T06:23:08.763Z,1.27
2022-10-13T06:25:54.690Z,1.29
2022-10-13T06:28:40.405Z,1.27
2022-10-13T06:31:26.421Z,1.27
2022-10-13T06:34:12.682Z,1.31
2022-10-13T06:37:02.593Z,1.41
2022-10-13T06:39:48.076Z,1.42
2022-10-13T06:42:34.761Z,1.43
2022-10-13T06:45:29.530Z,1.49
2022-10-13T06:48:15.002Z,1.59
2022-10-13T06:51:09.147Z,1.60
2022-10-13T06:53:57.042Z,1.76
2022-10-13T06:56:44.012Z,1.80
2022-10-13T06:59:29.492Z,1.88
2022-10-13T07:02:14.979Z,1.99
2022-10-13T07:05:00.632Z,2.12
2022-10-13T07:07:46.520Z,2.09
2022-10-13T07:10:31.870Z,2.07
2022-10-13T07:13:17.392Z,2.16
2022-10-13T07:16:04.447Z,2.20
2022-10-13T07:18:50.885Z,2.21
2022-10-13T07:21:36.933Z,2.33
2022-10-13T07:24:22.938Z,2.42
2022-10-13T07:27:08.303Z,2.49
2022-10-13T07:29:53.743Z,2.64
2022-10-13T07:32:42.232Z,2.60
2022-10-13T07:35:30.669Z,2.59
2022-10-13T07:38:16.804Z,2.68
2022-10-13T07:41:08.817Z,2.77
2022-10-13T07:43:55.738Z,2.77
2022-10-13T07:46:41.055Z,2.84
2022-10-13T07:49:26.446Z,2.93
2022-10-13T07:52:12.273Z,2.99
2022-10-13T07:54:57.778Z,3.02
2022-10-13T07:57:43.051Z,3.20
2022-10-13T08:00:28.952Z,3.32
2022-10-13T08:03:14.157Z,3.37
2022-10-13T08:06:00.674Z,3.39
2022-10-13T08:08:46.434Z,3.51
2022-10-13T08:11:35.419Z,3.68
2022-10-13T08:14:21.456Z,3.77
2022-10-13T08:17:06.945Z,3.93
2022-10-13T08:19:52.320Z,4.01
2022-10-13T08:22:38.305Z,4.17
2022-10-13T08:25:23.515Z,4.35
2022-10-13T08:28:19.014Z,4.46
2022-10-13T08:31:04.641Z,4.61
2022-10-13T08:33:51.330Z,4.73
2022-10-13T08:36:37.830Z,4.91
2022-10-13T08:39:24.639Z,5.11
2022-10-13T08:42:22.492Z,5.28
2022-10-13T08:45:36.316Z,5.41
2022-10-13T08:48:24.718Z,5.66
2022-10-13T08:51:13.262Z,5.77
2022-10-13T08:54:00.032Z,5.94
2022-10-13T08:56:50.093Z,6.16
2022-10-13T08:59:35.666Z,6.33
2022-10-13T09:02:31.922Z,6.51
2022-10-13T09:05:27.984Z,6.65
2022-10-13T09:08:21.285Z,6.78
2022-10-13T09:11:06.839Z,6.89
2022-10-13T09:13:58.181Z,7.03
2022-10-13T09:16:45.353Z,7.15
2022-10-13T09:19:36.744Z,7.25
2022-10-13T09:22:30.260Z,7.41
2022-10-13T09:25:20.576Z,7.61
2022-10-13T09:28:15.900Z,7.86
2022-10-13T09:31:25.603Z,8.30
2022-10-13T09:34:20.121Z,8.77
2022-10-13T09:37:10.380Z,9.08
2022-10-13T09:40:19.722Z,9.32
2022-10-13T09:43:20.648Z,9.56
2022-10-13T09:46:28.668Z,9.82
2022-10-13T09:49:40.062Z,9.99
2022-10-13T09:52:25.576Z,10.14
2022-10-13T09:55:34.102Z,10.27
2022-10-13T09:58:28.487Z,10.36
2022-10-13T10:01:23.262Z,10.42
2022-10-13T10:04:14.646Z,10.42
2022-10-13T10:07:09.918Z,10.41
2022-10-13T10:10:01.821Z,10.50
2022-10-13T10:12:47.797Z,10.55
2022-10-13T10:15:49.803Z,10.58
2022-10-13T10:18:45.258Z,10.59
2022-10-13T10:21:43.979Z,10.69
2022-10-13T10:24:53.746Z,10.81
2022-10-13T10:27:46.164Z,10.90
2022-10-13T10:30:37.935Z,10.97
2022-10-13T10:33:43.113Z,11.07
2022-10-13T10:37:06.450Z,11.20
2022-10-13T10:40:01.028Z,11.28
2022-10-13T10:43:13.346Z,11.37
2022-10-13T10:45:59.591Z,11.46
2022-10-13T10:48:50.466Z,11.58
2022-10-13T10:51:38.095Z,11.77
2022-10-13T10:55:18.538Z,11.90
2022-10-13T10:58:20.727Z,12.05
2022-10-13T11:01:16.376Z,12.14
2022-10-13T11:04:40.626Z,12.21
2022-10-13T11:07:26.156Z,12.25
2022-10-13T11:10:16.411Z,12.34
2022-10-13T11:13:02.075Z,12.43
2022-10-13T11:15:48.062Z,12.56
2022-10-13T11:18:55.078Z,12.75
2022-10-13T11:22:16.008Z,12.94
2022-10-13T11:25:43.331Z,13.24
2022-10-13T11:28:41.069Z,13.43
2022-10-13T11:31:47.196Z,13.55
2022-10-13T11:34:33.044Z,13.69
2022-10-13T11:37:18.810Z,13.89
2022-10-13T11:40:22.891Z,14.07
2022-10-13T11:43:27.115Z,14.20
2022-10-13T11:46:19.672Z,14.26
2022-10-13T11:49:40.681Z,14.32
2022-10-13T11:52:59.856Z,14.33
2022-10-13T11:55:55.701Z,14.38
2022-10-13T11:58:42.763Z,14.46
2022-10-13T12:01:28.726Z,14.49
2022-10-13T12:04:15.791Z,14.50
2022-10-13T12:07:04.747Z,14.49
2022-10-13T12:09:52.339Z,14.54
2022-10-13T12:12:48.037Z,14.56
2022-10-13T12:15:43.561Z,14.69
2022-10-13T12:18:34.851Z,14.75
2022-10-13T12:21:22.666Z,14.67
2022-10-13T12:24:10.070Z,14.69
2022-10-13T12:26:57.043Z,14.81
2022-10-13T12:29:43.636Z,15.03
2022-10-13T12:32:32.259Z,15.16
2022-10-13T12:35:19.315Z,15.10
2022-10-13T12:38:21.170Z,14.98
2022-10-13T12:41:06.672Z,15.04
2022-10-13T12:43:53.391Z,15.15
2022-10-13T12:46:46.076Z,15.31
2022-10-13T12:49:36.300Z,15.53
2022-10-13T12:52:25.376Z,15.77
2022-10-13T12:55:19.468Z,15.84
2022-10-13T12:58:04.934Z,15.82
2022-10-13T13:01:09.477Z,15.85
2022-10-13T13:04:27.682Z,15.92
2022-10-13T13:07:35.701Z,16.18
2022-10-13T13:10:21.433Z,16.42
2022-10-13T13:13:15.241Z,16.45
2022-10-13T13:16:21.866Z,16.21
2022-10-13T13:19:22.798Z,16.25
2022-10-13T13:22:08.905Z,16.10
2022-10-13T13:24:54.319Z,16.13
2022-10-13T13:27:40.765Z,16.00
2022-10-13T13:30:26.786Z,16.01
2022-10-13T13:35:58.058Z,15.99
2022-10-13T13:38:44.374Z,16.05
2022-10-13T13:41:31.357Z,16.12
2022-10-13T13:44:16.882Z,16.17
2022-10-13T13:47:03.043Z,16.20
2022-10-13T13:49:50.420Z,16.15
2022-10-13T13:52:35.963Z,16.17
2022-10-13T13:55:22.641Z,16.16
2022-10-13T13:58:09.453Z,16.41
2022-10-13T14:00:55.496Z,16.51
2022-10-13T14:03:41.323Z,16.59
2022-10-13T14:06:27.891Z,16.59
2022-10-13T14:09:13.689Z,16.59
2022-10-13T14:12:00.108Z,16.65
2022-10-13T14:14:45.748Z,16.60
2022-10-13T14:17:33.067Z,16.54
2022-10-13T14:20:19.904Z,16.36
2022-10-13T14:23:05.642Z,16.28
2022-10-13T14:25:51.528Z,16.22
2022-10-13T14:28:45.518Z,16.28
2022-10-13T14:31:32.429Z,16.36
2022-10-13T14:34:19.165Z,16.65
2022-10-13T14:37:04.997Z,16.75
2022-10-13T14:39:50.790Z,16.75
2022-10-13T14:42:36.574Z,16.61
2022-10-13T14:45:23.359Z,16.56
2022-10-13T14:48:09.046Z,16.30
2022-10-13T14:50:54.870Z,16.09
2022-10-13T14:53:43.209Z,15.84
2022-10-13T14:56:30.458Z,15.58
2022-10-13T14:59:16.770Z,15.21
2022-10-13T15:02:03.322Z,14.96
2022-10-13T15:04:48.673Z,14.69
2022-10-13T15:07:36.854Z,14.57
2022-10-13T15:10:26.062Z,14.44
2022-10-13T15:13:12.387Z,14.34
2022-10-13T15:16:02.648Z,14.35
2022-10-13T15:18:49.192Z,14.39
2022-10-13T15:21:34.999Z,14.49
2022-10-13T15:24:21.724Z,14.55
2022-10-13T15:27:10.796Z,14.60
2022-10-13T15:29:56.300Z,14.62
2022-10-13T15:32:41.955Z,14.59
2022-10-13T15:35:31.476Z,14.57
2022-10-13T15:38:18.667Z,14.50
2022-10-13T15:41:07.051Z,14.46
2022-10-13T15:43:53.047Z,14.44
2022-10-13T15:46:49.158Z,14.42
2022-10-13T15:49:45.221Z,14.40
2022-10-13T15:52:34.635Z,14.40
2022-10-13T15:55:20.953Z,14.48
2022-10-13T15:58:11.350Z,14.49
2022-10-13T16:00:59.175Z,14.50
2022-10-13T16:03:45.352Z,14.49
2022-10-13T16:06:33.673Z,14.44
2022-10-13T16:09:19.502Z,14.44
2022-10-13T16:12:05.594Z,14.50
2022-10-13T16:14:52.198Z,14.55
2022-10-13T16:17:38.142Z,14.46
2022-10-13T16:20:23.832Z,14.36
2022-10-13T16:23:09.368Z,14.20
2022-10-13T16:25:54.839Z,14.11
2022-10-13T16:28:40.548Z,14.04
2022-10-13T16:31:26.434Z,13.93
2022-10-13T16:34:11.933Z,13.82
2022-10-13T16:36:57.205Z,13.77
2022-10-13T16:39:44.621Z,13.70
2022-10-13T16:42:33.252Z,13.61
2022-10-13T16:45:21.522Z,13.49
2022-10-13T16:48:16.142Z,13.41
2022-10-13T16:51:06.714Z,13.37
2022-10-13T16:53:55.512Z,13.29
2022-10-13T16:56:43.118Z,13.25
2022-10-13T16:59:28.913Z,13.19
2022-10-13T17:02:15.485Z,13.21
2022-10-13T17:05:01.251Z,13.21
2022-10-13T17:07:46.836Z,13.26
2022-10-13T17:10:33.263Z,13.26
2022-10-13T17:13:19.585Z,13.34
2022-10-13T17:16:05.271Z,13.36
2022-10-13T17:18:50.544Z,13.37
2022-10-13T17:21:37.015Z,13.36
2022-10-13T17:24:24.422Z,13.35
2022-10-13T17:27:10.228Z,13.33
2022-10-13T17:29:56.358Z,13.32
2022-10-13T17:32:42.136Z,13.29
2022-10-13T17:35:27.677Z,13.29
2022-10-13T17:38:15.583Z,13.27
2022-10-13T17:41:02.841Z,13.28
2022-10-13T17:43:49.939Z,13.29
2022-10-13T17:46:38.076Z,13.28
2022-10-13T17:49:24.813Z,13.26
2022-10-13T17:52:10.312Z,13.23
2022-10-13T17:54:56.060Z,13.17
2022-10-13T17:57:42.377Z,13.12
2022-10-13T18:00:28.045Z,12.98
2022-10-13T18:03:13.607Z,12.86
2022-10-13T18:05:59.070Z,12.77
2022-10-13T18:08:44.642Z,12.68
2022-10-13T18:11:30.014Z,12.60
2022-10-13T18:14:15.889Z,12.49
2022-10-13T18:17:03.465Z,12.38
2022-10-13T18:19:50.995Z,12.25
2022-10-13T18:22:36.571Z,12.14
2022-10-13T18:25:24.534Z,12.03
2022-10-13T18:28:09.994Z,11.94
2022-10-13T18:30:55.747Z,11.85
2022-10-13T18:33:41.978Z,11.77
2022-10-13T18:36:35.555Z,11.70
2022-10-13T18:39:28.055Z,11.64
2022-10-13T18:42:13.887Z,11.53
2022-10-13T18:44:59.719Z,11.46
2022-10-13T18:47:45.453Z,11.40
2022-10-13T18:50:31.463Z,11.36
2022-10-13T18:53:18.814Z,11.29
2022-10-13T18:56:10.616Z,11.24
2022-10-13T18:58:59.874Z,11.20
2022-10-13T19:01:46.177Z,11.12
2022-10-13T19:04:32.500Z,11.05
2022-10-13T19:07:19.308Z,11.03
2022-10-13T19:10:06.685Z,10.91
2022-10-13T19:12:52.766Z,10.90
2022-10-13T19:15:39.942Z,10.82
2022-10-13T19:18:25.875Z,10.86
2022-10-13T19:21:12.440Z,10.79
2022-10-13T19:23:59.901Z,10.76
2022-10-13T19:26:45.844Z,10.74
2022-10-13T19:29:33.276Z,10.68
2022-10-13T19:32:20.620Z,10.66
2022-10-13T19:35:06.484Z,10.67
2022-10-13T19:37:52.015Z,10.72
2022-10-13T19:40:42.423Z,10.73
2022-10-13T19:43:27.857Z,10.77
2022-10-13T19:46:14.077Z,10.77
2022-10-13T19:49:00.695Z,10.80
2022-10-13T19:51:47.478Z,10.77
2022-10-13T19:54:36.088Z,10.85
2022-10-13T19:57:22.369Z,10.86
2022-10-13T20:00:09.167Z,10.83
2022-10-13T20:02:58.294Z,10.81
2022-10-13T20:05:44.268Z,10.77
2022-10-13T20:08:30.137Z,10.72
2022-10-13T20:11:23.410Z,10.73
2022-10-13T20:14:09.945Z,10.72
2022-10-13T20:16:58.444Z,10.69
2022-10-13T20:19:44.573Z,10.67
2022-10-13T20:22:30.212Z,10.65
2022-10-13T20:25:19.693Z,10.66
2022-10-13T20:28:06.267Z,10.66
2022-10-13T20:30:51.987Z,10.67
2022-10-13T20:33:37.877Z,10.66
2022-10-13T20:36:25.397Z,10.67
2022-10-13T20:39:10.935Z,10.72
2022-10-13T20:41:56.254Z,10.75
2022-10-13T20:44:42.272Z,10.78
2022-10-13T20:47:28.561Z,10.77
2022-10-13T20:50:14.685Z,10.75
2022-10-13T20:53:00.055Z,10.72
2022-10-13T20:55:54.645Z,10.66
2022-10-13T20:58:40.775Z,10.67
2022-10-13T21:01:26.558Z,10.66
2022-10-13T21:04:12.368Z,10.58
2022-10-13T21:06:57.744Z,10.50
2022-10-13T21:09:43.128Z,10.43
2022-10-13T21:12:28.695Z,10.35
2022-10-13T21:15:14.741Z,10.30
2022-10-13T21:18:00.217Z,10.31
2022-10-13T21:20:45.484Z,10.31
2022-10-13T21:23:30.884Z,10.33
2022-10-13T21:26:21.359Z,10.37
2022-10-13T21:29:07.645Z,10.39
2022-10-13T21:31:53.441Z,10.41
2022-10-13T21:34:38.910Z,10.43
2022-10-13T21:37:24.708Z,10.41
2022-10-13T21:40:10.638Z,10.38
2022-10-13T21:42:56.499Z,10.36
2022-10-13T21:45:42.546Z,10.34
2022-10-13T21:48:27.942Z,10.32
2022-10-13T21:51:18.610Z,10.29
2022-10-13T21:54:11.974Z,10.20
2022-10-13T21:56:57.660Z,10.14
2022-10-13T21:59:43.105Z,10.13
2022-10-13T22:02:28.765Z,10.13
2022-10-13T22:05:14.411Z,10.06
2022-10-13T22:08:00.174Z,10.00
2022-10-13T22:10:45.508Z,9.99
2022-10-13T22:13:30.932Z,9.92
2022-10-13T22:16:22.429Z,9.84
2022-10-13T22:19:07.945Z,9.75
2022-10-13T22:21:54.253Z,9.70
2022-10-13T22:24:39.948Z,9.58
2022-10-13T22:27:25.864Z,9.45
2022-10-13T22:30:12.237Z,9.50
2022-10-13T22:32:57.420Z,9.54
2022-10-13T22:35:43.003Z,9.43
2022-10-13T22:38:28.667Z,9.31
2022-10-13T22:41:16.860Z,9.17
2022-10-13T22:44:04.163Z,9.11
2022-10-13T22:46:49.506Z,8.97
2022-10-13T22:49:34.696Z,8.79
2022-10-13T22:52:22.109Z,8.68
2022-10-13T22:55:10.024Z,8.55
2022-10-13T22:57:56.522Z,8.37
2022-10-13T23:00:41.887Z,8.18
2022-10-13T23:03:27.247Z,8.18
2022-10-13T23:06:20.477Z,8.08
2022-10-13T23:09:09.370Z,7.98
2022-10-13T23:11:59.651Z,7.80
2022-10-13T23:14:46.404Z,7.73
2022-10-13T23:17:31.879Z,7.65
2022-10-13T23:20:17.475Z,7.65
2022-10-13T23:23:03.140Z,7.63
2022-10-13T23:25:48.620Z,7.59
2022-10-13T23:28:35.049Z,7.46
2022-10-13T23:31:20.999Z,7.43
2022-10-13T23:34:06.415Z,7.35
2022-10-13T23:36:52.036Z,7.19
2022-10-13T23:39:37.457Z,7.03
2022-10-13T23:42:22.960Z,6.95
2022-10-13T23:45:09.128Z,6.83
2022-10-13T23:47:54.669Z,6.71
2022-10-13T23:50:40.748Z,6.59
2022-10-13T23:53:26.070Z,6.49
2022-10-13T23:56:12.571Z,6.55
2022-10-13T23:58:58.250Z,6.51
